Time;durP1;ratioP1;P1;durP2;ratioP2;P2;SDS_P1;SDS_P2;PMS_P1;PMS_P2;Temp;Humidity;BMP_temperature;BMP_pressure;BME280_temperature;BME280_humidity;BME280_pressure;Samples;Min_cycle;Max_cycle;Signal;HPM_P1;HPM_P2
2022/07/15 00:00:45;;;;;;;;;;;;;;;17.08;100.00;100085.28;3053427;19;1058;-48
2022/07/15 00:01:50;;;;;;;;;;;;;;;17.08;100.00;100093.38;3053375;19;1677;-49
2022/07/15 00:02:54;;;;;;;;;;;;;;;17.09;100.00;100089.69;3053918;19;1048;-50
2022/07/15 00:03:56;;;;;;;;;;;;;;;17.09;100.00;100092.38;3054020;19;1169;-48
2022/07/15 00:05:01;;;;;;;;;;;;;;;17.08;100.00;100087.97;3052915;19;1247;-49
2022/07/15 00:06:03;;;;;;;;;;;;;;;17.09;100.00;100095.06;3053651;19;939;-49
2022/07/15 00:07:07;;;;;;;;;;;;;;;17.10;100.00;100097.63;3053839;19;1626;-49
2022/07/15 00:08:09;;;;;;;;;;;;;;;17.11;100.00;100098.47;3053856;19;1181;-49
2022/07/15 00:09:14;;;;;;;;;;;;;;;17.11;100.00;100093.09;3053091;19;1104;-49
2022/07/15 00:10:18;;;;;;;;;;;;;;;17.08;100.00;100093.38;3049732;19;1293;-49
2022/07/15 00:11:23;;;;;;;;;;;;;;;17.09;100.00;100093.22;3045245;19;1857;-49
2022/07/15 00:12:25;;;;;;;;;;;;;;;17.07;100.00;100089.81;3045852;19;1313;-50
2022/07/15 00:13:30;;;;;;;;;;;;;;;17.07;100.00;100097.06;3046824;19;1008;-49
2022/07/15 00:14:32;;;;;;;;;;;;;;;17.04;100.00;100090.09;3048759;19;1048;-50
2022/07/15 00:15:37;;;;;;;;;;;;;;;17.07;100.00;100091.66;3048148;19;1057;-49
2022/07/15 00:16:39;;;;;;;;;;;;;;;17.06;100.00;100084.56;3047910;19;1195;-49
2022/07/15 00:17:43;;;;;;;;;;;;;;;17.06;100.00;100090.81;3051099;19;1272;-50
2022/07/15 00:18:45;;;;;;;;;;;;;;;17.05;100.00;100088.25;3053623;19;1019;-49
2022/07/15 00:19:50;;;;;;;;;;;;;;;17.04;100.00;100089.25;3053382;19;1116;-49
2022/07/15 00:20:52;;;;;;;;;;;;;;;17.05;100.00;100096.34;3053651;19;1011;-49
2022/07/15 00:21:56;;;;;;;;;;;;;;;17.04;100.00;100091.94;3053216;19;1575;-48
2022/07/15 00:22:59;;;;;;;;;;;;;;;16.97;100.00;100080.06;3053830;19;1107;-48
2022/07/15 00:24:03;;;;;;;;;;;;;;;17.04;100.00;100089.25;3053122;19;1641;-49
2022/07/15 00:25:06;;;;;;;;;;;;;;;17.02;100.00;100089.44;3053210;19;1094;-49
2022/07/15 00:26:10;;;;;;;;;;;;;;;17.00;100.00;100091.41;3053415;19;1035;-49
2022/07/15 00:27:13;;;;;;;;;;;;;;;17.01;100.00;100094.97;3053554;19;1161;-48
2022/07/15 00:28:18;;;;;;;;;;;;;;;16.98;100.00;100093.41;3052941;19;944;-48
2022/07/15 00:29:19;;;;;;;;;;;;;;;16.97;100.00;100096.25;3053788;19;925;-49
2022/07/15 00:30:24;;;;;;;;;;;;;;;16.95;100.00;100092.81;3053120;19;986;-48
2022/07/15 00:31:26;;;;;;;;;;;;;;;16.93;100.00;100087.59;3053648;19;1842;-49
2022/07/15 00:32:31;;;;;;;;;;;;;;;16.93;100.00;100091.13;3049897;19;949;-49
2022/07/15 00:33:33;;;;;;;;;;;;;;;16.92;100.00;100089.41;3045639;19;1226;-49
2022/07/15 00:34:37;;;;;;;;;;;;;;;16.90;100.00;100096.78;3044921;19;953;-48
2022/07/15 00:35:39;;;;;;;;;;;;;;;16.89;100.00;100089.75;3045543;19;1389;-49
2022/07/15 00:36:44;;;;;;;;;;;;;;;16.89;100.00;100103.22;3047663;19;1031;-49
2022/07/15 00:37:46;;;;;;;;;;;;;;;16.89;100.00;100099.66;3048045;19;1053;-49
2022/07/15 00:38:50;;;;;;;;;;;;;;;16.88;100.00;100104.22;3047308;19;1711;-49
2022/07/15 00:39:52;;;;;;;;;;;;;;;16.88;100.00;100096.13;3049702;19;1083;-49
2022/07/15 00:40:57;;;;;;;;;;;;;;;16.84;100.00;100094.69;3052879;19;1196;-48
2022/07/15 00:41:59;;;;;;;;;;;;;;;16.86;100.00;100095.41;3052203;19;1213;-48
2022/07/15 00:43:04;;;;;;;;;;;;;;;16.86;100.00;100103.50;3052373;19;1226;-49
2022/07/15 00:44:06;;;;;;;;;;;;;;;16.84;100.00;100102.78;3052721;19;1265;-49
2022/07/15 00:45:11;;;;;;;;;;;;;;;16.85;100.00;100103.63;3052406;19;972;-48
2022/07/15 00:46:18;;;;;;;;;;;;;;;16.83;100.00;100101.06;3053656;19;907;-49
2022/07/15 00:47:20;;;;;;;;;;;;;;;16.81;100.00;100107.59;3052618;19;1055;-48
2022/07/15 00:48:24;;;;;;;;;;;;;;;16.79;100.00;100102.34;3052009;19;1780;-49
2022/07/15 00:49:26;;;;;;;;;;;;;;;16.77;100.00;100100.81;3052811;19;1831;-48
2022/07/15 00:50:31;;;;;;;;;;;;;;;16.75;100.00;100100.09;3052641;19;989;-48
2022/07/15 00:51:43;;;;;;;;;;;;;;;16.70;100.00;100094.28;3053045;19;1854;-49
2022/07/15 00:52:50;;;;;;;;;;;;;;;16.64;100.00;100101.09;3052805;19;1015;-49
2022/07/15 00:53:52;;;;;;;;;;;;;;;16.59;100.00;100089.88;3052497;19;923;-48
2022/07/15 00:54:57;;;;;;;;;;;;;;;16.54;100.00;100092.97;3048477;19;940;-48
2022/07/15 00:55:59;;;;;;;;;;;;;;;16.49;100.00;100080.94;3045988;19;1146;-48
2022/07/15 00:57:05;;;;;;;;;;;;;;;16.45;100.00;100082.19;3045260;19;1413;-49
2022/07/15 00:58:07;;;;;;;;;;;;;;;16.43;100.00;100086.88;3045193;19;1471;-49
2022/07/15 00:59:12;;;;;;;;;;;;;;;16.41;100.00;100088.88;3047234;19;1619;-49
2022/07/15 01:00:14;;;;;;;;;;;;;;;16.35;100.00;100084.91;3047304;19;1132;-48
2022/07/15 01:01:19;;;;;;;;;;;;;;;16.33;100.00;100086.03;3046950;19;1210;-49
2022/07/15 01:02:21;;;;;;;;;;;;;;;16.29;100.00;100085.47;3049370;19;1404;-49
2022/07/15 01:03:25;;;;;;;;;;;;;;;16.25;100.00;100088.59;3051449;19;1044;-48
2022/07/15 01:04:28;;;;;;;;;;;;;;;16.19;100.00;100090.84;3052332;19;1013;-49
2022/07/15 01:05:32;;;;;;;;;;;;;;;16.14;100.00;100076.97;3053564;19;1260;-47
2022/07/15 01:06:34;;;;;;;;;;;;;;;16.07;100.00;100075.78;3056159;19;1052;-48
2022/07/15 01:07:39;;;;;;;;;;;;;;;16.03;100.00;100085.16;3054792;19;1180;-48
2022/07/15 01:08:41;;;;;;;;;;;;;;;15.98;100.00;100082.03;3055525;19;1009;-48
2022/07/15 01:09:47;;;;;;;;;;;;;;;15.93;100.00;100084.28;3054803;19;1100;-48
2022/07/15 01:10:49;;;;;;;;;;;;;;;15.85;100.00;100076.03;3055203;19;1011;-49
2022/07/15 01:11:54;;;;;;;;;;;;;;;15.79;100.00;100071.22;3054543;19;1834;-49
2022/07/15 01:12:56;;;;;;;;;;;;;;;15.75;100.00;100083.25;3055020;19;1000;-48
2022/07/15 01:14:05;;;;;;;;;;;;;;;15.68;100.00;100076.72;3054702;19;1327;-49
2022/07/15 01:15:08;;;;;;;;;;;;;;;15.62;100.00;100074.56;3054841;19;940;-48
2022/07/15 01:16:12;;;;;;;;;;;;;;;15.57;100.00;100076.81;3056198;19;1119;-48
2022/07/15 01:17:15;;;;;;;;;;;;;;;15.51;100.00;100072.78;3052364;19;1315;-50
2022/07/15 01:18:20;;;;;;;;;;;;;;;15.45;100.00;100071.53;3046973;19;1387;-49
2022/07/15 01:19:22;;;;;;;;;;;;;;;15.41;100.00;100070.09;3047523;19;1350;-48
2022/07/15 01:20:26;;;;;;;;;;;;;;;15.38;100.00;100072.19;3047928;19;1116;-48
2022/07/15 01:21:36;;;;;;;;;;;;;;;15.33;100.00;100069.91;3049936;19;988;-50
2022/07/15 01:22:38;;;;;;;;;;;;;;;15.29;100.00;100070.31;3049257;19;949;-50
2022/07/15 01:23:43;;;;;;;;;;;;;;;15.25;100.00;100066.19;3050160;19;1036;-50
2022/07/15 01:24:58;;;;;;;;;;;;;;;15.21;100.00;100064.75;3053258;19;1084;-49
2022/07/15 01:26:05;;;;;;;;;;;;;;;15.17;100.00;100066.84;3054694;19;1013;-48
2022/07/15 01:27:08;;;;;;;;;;;;;;;15.14;100.00;100064.44;3055285;19;860;-49
2022/07/15 01:28:13;;;;;;;;;;;;;;;15.10;100.00;100063.84;3054413;19;1190;-49
2022/07/15 01:29:15;;;;;;;;;;;;;;;15.06;100.00;100061.56;3054453;19;1129;-49
2022/07/15 01:30:20;;;;;;;;;;;;;;;15.02;100.00;100055.59;3054656;19;1076;-48
2022/07/15 01:31:22;;;;;;;;;;;;;;;14.99;100.00;100060.38;3054961;19;1329;-48
2022/07/15 01:32:26;;;;;;;;;;;;;;;14.96;100.00;100060.66;3053795;19;1846;-49
2022/07/15 01:33:30;;;;;;;;;;;;;;;14.93;100.00;100060.94;3054561;19;854;-50
2022/07/15 01:34:34;;;;;;;;;;;;;;;14.90;100.00;100055.81;3054719;19;964;-49
2022/07/15 01:35:37;;;;;;;;;;;;;;;14.88;100.00;100064.00;3055181;19;1125;-49
2022/07/15 01:36:42;;;;;;;;;;;;;;;14.86;100.00;100054.34;3054819;19;1877;-49
2022/07/15 01:37:45;;;;;;;;;;;;;;;14.82;100.00;100061.00;3054823;19;951;-49
2022/07/15 01:38:49;;;;;;;;;;;;;;;14.71;100.00;100045.81;3054255;19;948;-48
2022/07/15 01:40:15;;;;;;;;;;;;;;;14.75;100.00;100064.19;3048092;19;1088;-49
2022/07/15 01:41:17;;;;;;;;;;;;;;;14.74;100.00;100062.50;3046706;19;1020;-48
2022/07/15 01:42:21;;;;;;;;;;;;;;;14.62;100.00;100046.56;3047643;19;1196;-48
2022/07/15 01:43:23;;;;;;;;;;;;;;;14.68;100.00;100057.66;3049062;19;1327;-49
2022/07/15 01:44:28;;;;;;;;;;;;;;;14.67;100.00;100061.31;3048913;19;940;-49
2022/07/15 01:45:30;;;;;;;;;;;;;;;14.65;100.00;100062.44;3050288;19;1004;-49
2022/07/15 01:46:35;;;;;;;;;;;;;;;14.62;100.00;100057.31;3049891;19;1058;-48
2022/07/15 01:47:41;;;;;;;;;;;;;;;14.58;100.00;100053.22;3054313;19;980;-49
2022/07/15 01:50:30;;;;;;;;;;;;;;;14.48;100.00;100053.16;3054960;19;1143;-49
2022/07/15 01:51:33;;;;;;;;;;;;;;;14.43;100.00;100052.66;3055606;19;1254;-49
2022/07/15 01:52:37;;;;;;;;;;;;;;;14.39;100.00;100045.81;3053586;19;1852;-48
2022/07/15 01:53:39;;;;;;;;;;;;;;;14.36;100.00;100056.81;3054049;19;1352;-48
2022/07/15 01:54:45;;;;;;;;;;;;;;;14.32;100.00;100055.38;3054981;19;1150;-49
2022/07/15 01:55:47;;;;;;;;;;;;;;;14.28;100.00;100053.91;3054930;19;1821;-49
2022/07/15 01:56:53;;;;;;;;;;;;;;;14.26;100.00;100051.34;3054719;19;1027;-49
2022/07/15 01:57:57;;;;;;;;;;;;;;;14.23;100.00;100058.84;3054544;19;1134;-48
2022/07/15 01:59:02;;;;;;;;;;;;;;;14.21;100.00;100053.59;3054497;19;1116;-48
2022/07/15 02:00:08;;;;;;;;;;;;;;;14.18;100.00;100053.00;3054113;19;1207;-48
2022/07/15 02:01:21;;;;;;;;;;;;;;;14.15;100.00;100053.22;3054272;19;1011;-48
2022/07/15 02:02:25;;;;;;;;;;;;;;;14.11;100.00;100051.81;3048878;19;1039;-49
2022/07/15 02:03:27;;;;;;;;;;;;;;;14.09;100.00;100053.75;3046553;19;1465;-49
2022/07/15 02:04:32;;;;;;;;;;;;;;;14.05;100.00;100059.38;3048228;19;1006;-49
2022/07/15 02:05:34;;;;;;;;;;;;;;;14.02;100.00;100058.75;3049034;19;1030;-49
2022/07/15 02:06:39;;;;;;;;;;;;;;;13.99;100.00;100062.56;3049422;19;970;-49
2022/07/15 02:07:41;;;;;;;;;;;;;;;13.95;100.00;100053.06;3049045;19;1454;-49
2022/07/15 02:08:49;;;;;;;;;;;;;;;13.92;100.00;100056.00;3049145;19;1258;-49
2022/07/15 02:09:54;;;;;;;;;;;;;;;13.91;100.00;100056.97;3054174;19;1083;-48
2022/07/15 02:10:58;;;;;;;;;;;;;;;13.88;100.00;100051.88;3054317;19;1095;-49
2022/07/15 02:12:00;;;;;;;;;;;;;;;13.84;100.00;100053.09;3053987;19;1099;-49
2022/07/15 02:13:13;;;;;;;;;;;;;;;13.81;100.00;100044.44;3053871;19;1846;-48
2022/07/15 02:14:21;;;;;;;;;;;;;;;13.79;100.00;100041.03;3054305;19;877;-49
2022/07/15 02:15:24;;;;;;;;;;;;;;;13.75;100.00;100047.66;3054142;19;1238;-49
2022/07/15 02:16:33;;;;;;;;;;;;;;;13.70;100.00;100048.88;3054219;19;905;-48
2022/07/15 02:17:37;;;;;;;;;;;;;;;13.67;100.00;100048.25;3054092;19;960;-49
2022/07/15 02:18:41;;;;;;;;;;;;;;;13.63;100.00;100049.50;3054071;19;1147;-48
2022/07/15 02:19:44;;;;;;;;;;;;;;;13.59;100.00;100042.66;3054088;19;1180;-48
2022/07/15 02:20:49;;;;;;;;;;;;;;;13.55;100.00;100047.41;3053328;19;1669;-49
2022/07/15 02:21:51;;;;;;;;;;;;;;;13.52;100.00;100049.50;3054495;19;1139;-48
2022/07/15 02:22:57;;;;;;;;;;;;;;;13.49;100.00;100036.34;3053690;19;1105;-48
2022/07/15 02:23:59;;;;;;;;;;;;;;;13.46;100.00;100044.63;3054478;19;1019;-49
2022/07/15 02:25:03;;;;;;;;;;;;;;;13.44;100.00;100047.44;3046389;19;998;-49
2022/07/15 02:26:06;;;;;;;;;;;;;;;13.41;100.00;100038.78;3046519;19;1378;-49
2022/07/15 02:27:11;;;;;;;;;;;;;;;13.38;100.00;100039.03;3046414;19;877;-49
2022/07/15 02:28:13;;;;;;;;;;;;;;;13.37;100.00;100042.69;3048407;19;1092;-49
2022/07/15 02:29:18;;;;;;;;;;;;;;;13.26;100.00;100016.75;3048393;19;1040;-49
2022/07/15 02:30:20;;;;;;;;;;;;;;;13.34;100.00;100036.59;3048763;19;999;-49
2022/07/15 02:31:24;;;;;;;;;;;;;;;13.33;100.00;100040.25;3048893;19;1793;-48
2022/07/15 02:32:26;;;;;;;;;;;;;;;13.32;100.00;100027.84;3053888;19;901;-49
2022/07/15 02:33:31;;;;;;;;;;;;;;;13.31;100.00;100030.63;3052660;19;1834;-47
2022/07/15 02:34:35;;;;;;;;;;;;;;;13.30;100.00;100032.44;3053895;19;1164;-49
2022/07/15 02:35:38;;;;;;;;;;;;;;;13.30;100.00;100031.59;3053343;19;1139;-49
2022/07/15 02:36:42;;;;;;;;;;;;;;;13.29;100.00;100041.47;3054099;19;1007;-49
2022/07/15 02:37:45;;;;;;;;;;;;;;;13.28;100.00;100037.06;3053781;19;1029;-49
2022/07/15 02:38:50;;;;;;;;;;;;;;;13.27;100.00;100035.41;3054344;19;1139;-49
2022/07/15 02:39:52;;;;;;;;;;;;;;;13.27;100.00;100027.38;3053572;19;1057;-49
2022/07/15 02:40:57;;;;;;;;;;;;;;;13.28;100.00;100037.06;3053653;19;1839;-50
2022/07/15 02:41:59;;;;;;;;;;;;;;;13.32;100.00;100043.06;3053888;19;1285;-50
2022/07/15 02:43:04;;;;;;;;;;;;;;;13.37;100.00;100040.03;3053545;19;1121;-48
2022/07/15 02:44:07;;;;;;;;;;;;;;;13.44;100.00;100033.19;3053790;19;1757;-49
2022/07/15 02:45:14;;;;;;;;;;;;;;;13.56;100.00;100037.53;3053583;19;933;-50
2022/07/15 02:46:16;;;;;;;;;;;;;;;13.65;100.00;100034.13;3053343;19;1094;-49
2022/07/15 02:47:21;;;;;;;;;;;;;;;13.70;100.00;100042.66;3047967;19;936;-48
2022/07/15 02:48:23;;;;;;;;;;;;;;;13.74;100.00;100043.25;3046644;19;985;-49
2022/07/15 02:49:28;;;;;;;;;;;;;;;13.83;100.00;100039.81;3045601;19;1104;-49
2022/07/15 02:50:31;;;;;;;;;;;;;;;13.99;100.00;100042.94;3047694;19;1401;-48
2022/07/15 02:51:36;;;;;;;;;;;;;;;14.11;100.00;100046.44;3047927;19;1291;-49
2022/07/15 02:52:38;;;;;;;;;;;;;;;14.15;100.00;100047.88;3049280;19;1209;-50
2022/07/15 02:53:42;;;;;;;;;;;;;;;14.26;100.00;100047.81;3047927;19;1859;-50
2022/07/15 02:54:49;;;;;;;;;;;;;;;14.50;100.00;100059.22;3053937;19;1004;-49
2022/07/15 02:55:55;;;;;;;;;;;;;;;14.77;100.00;100064.94;3053478;19;997;-51
2022/07/15 02:57:00;;;;;;;;;;;;;;;15.03;100.00;100067.19;3053764;19;1147;-49
2022/07/15 02:58:02;;;;;;;;;;;;;;;15.29;100.00;100079.22;3052981;19;1011;-48
2022/07/15 02:59:06;;;;;;;;;;;;;;;15.57;100.00;100084.91;3053555;19;1083;-48
2022/07/15 03:00:11;;;;;;;;;;;;;;;15.76;100.00;100082.25;3053755;19;1147;-49
2022/07/15 03:01:15;;;;;;;;;;;;;;;15.84;100.00;100093.16;3053420;19;1285;-49
2022/07/15 03:02:20;;;;;;;;;;;;;;;16.04;100.00;100103.00;3053354;19;1036;-49
2022/07/15 03:03:27;;;;;;;;;;;;;;;16.30;100.00;100102.50;3053638;19;1122;-48
2022/07/15 03:04:30;;;;;;;;;;;;;;;16.42;100.00;100102.19;3053772;19;1407;-48
2022/07/15 03:05:36;;;;;;;;;;;;;;;16.42;100.00;100106.75;3053901;19;940;-50
2022/07/15 03:06:37;;;;;;;;;;;;;;;16.33;100.00;100112.94;3052931;19;1016;-48
2022/07/15 03:07:43;;;;;;;;;;;;;;;16.34;100.00;100115.50;3053945;19;1115;-48
2022/07/15 03:08:47;;;;;;;;;;;;;;;16.44;100.00;100115.50;3053904;19;1079;-49
2022/07/15 03:09:52;;;;;;;;;;;;;;;16.39;100.00;100115.09;3047556;19;948;-49
2022/07/15 03:10:57;;;;;;;;;;;;;;;16.26;100.00;100117.22;3046569;19;923;-48
2022/07/15 03:11:59;;;;;;;;;;;;;;;16.15;100.00;100126.28;3046126;19;980;-49
2022/07/15 03:13:04;;;;;;;;;;;;;;;16.10;100.00;100126.69;3047284;19;1112;-48
2022/07/15 03:14:06;;;;;;;;;;;;;;;16.04;100.00;100124.56;3047823;19;1841;-48
2022/07/15 03:15:12;;;;;;;;;;;;;;;16.46;100.00;100114.38;3048740;19;1136;-50
2022/07/15 03:16:15;;;;;;;;;;;;;;;17.20;100.00;100129.97;3048415;19;1251;-49
2022/07/15 03:17:23;;;;;;;;;;;;;;;17.68;100.00;100135.22;3053672;19;1107;-48
2022/07/15 03:18:27;;;;;;;;;;;;;;;18.25;100.00;100139.47;3053169;19;1211;-49
2022/07/15 03:19:30;;;;;;;;;;;;;;;18.87;100.00;100140.44;3052892;19;913;-50
2022/07/15 03:20:35;;;;;;;;;;;;;;;19.40;100.00;100142.19;3052925;19;959;-48
2022/07/15 03:21:37;;;;;;;;;;;;;;;19.43;100.00;100152.72;3053365;19;1008;-49
2022/07/15 03:22:41;;;;;;;;;;;;;;;19.29;100.00;100145.16;3052563;19;1809;-50
2022/07/15 03:23:44;;;;;;;;;;;;;;;18.94;100.00;100146.09;3053644;19;981;-48
2022/07/15 03:24:48;;;;;;;;;;;;;;;18.75;100.00;100138.97;3053024;19;1146;-49
2022/07/15 03:25:50;;;;;;;;;;;;;;;18.91;100.00;100146.41;3054157;19;1004;-49
2022/07/15 03:26:55;;;;;;;;;;;;;;;18.85;100.00;100139.75;3053371;19;1099;-49
2022/07/15 03:27:59;;;;;;;;;;;;;;;18.84;100.00;100140.75;3051698;19;1134;-48
2022/07/15 03:29:05;;;;;;;;;;;;;;;18.73;100.00;100151.78;3053187;19;1173;-48
2022/07/15 03:30:10;;;;;;;;;;;;;;;18.61;100.00;100155.75;3052388;19;948;-49
2022/07/15 03:31:12;;;;;;;;;;;;;;;18.42;100.00;100155.84;3052858;19;900;-49
2022/07/15 03:32:19;;;;;;;;;;;;;;;18.24;100.00;100153.97;3047408;19;1284;-48
2022/07/15 03:33:22;;;;;;;;;;;;;;;18.00;100.00;100148.28;3044996;19;995;-49
2022/07/15 03:34:27;;;;;;;;;;;;;;;17.93;100.00;100150.75;3045598;19;1884;-48
2022/07/15 03:35:29;;;;;;;;;;;;;;;17.85;100.00;100157.91;3046689;19;1051;-49
2022/07/15 03:36:33;;;;;;;;;;;;;;;17.79;100.00;100153.06;3047983;19;958;-48
2022/07/15 03:37:35;;;;;;;;;;;;;;;17.78;100.00;100151.38;3047516;19;1160;-49
2022/07/15 03:38:40;;;;;;;;;;;;;;;17.98;100.00;100153.00;3047810;19;1146;-48
2022/07/15 03:39:42;;;;;;;;;;;;;;;17.92;100.00;100153.59;3053100;19;1079;-48
2022/07/15 03:40:47;;;;;;;;;;;;;;;17.92;100.00;100159.84;3052480;19;1881;-48
2022/07/15 03:41:49;;;;;;;;;;;;;;;18.14;100.00;100153.19;3052821;19;1101;-49
2022/07/15 03:42:53;;;;;;;;;;;;;;;18.77;100.00;100166.72;3053354;19;1014;-49
2022/07/15 03:43:55;;;;;;;;;;;;;;;18.67;100.00;100163.25;3052893;19;1087;-50
2022/07/15 03:45:00;;;;;;;;;;;;;;;19.72;100.00;100161.34;3052130;19;1496;-47
2022/07/15 03:46:04;;;;;;;;;;;;;;;20.62;100.00;100175.28;3052670;19;1702;-49
2022/07/15 03:47:10;;;;;;;;;;;;;;;21.57;100.00;100163.75;3053026;19;972;-48
2022/07/15 03:48:12;;;;;;;;;;;;;;;21.91;98.77;100174.34;3052942;19;1177;-49
2022/07/15 03:49:18;;;;;;;;;;;;;;;22.52;93.62;100165.44;3052692;19;1097;-49
2022/07/15 03:50:22;;;;;;;;;;;;;;;23.44;88.04;100170.84;3052454;19;1474;-49
2022/07/15 03:51:24;;;;;;;;;;;;;;;24.24;82.99;100184.69;3052873;19;1469;-48
2022/07/15 03:52:29;;;;;;;;;;;;;;;24.97;78.29;100176.31;3052379;19;1165;-49
2022/07/15 03:53:31;;;;;;;;;;;;;;;25.66;74.23;100178.38;3052903;19;1688;-49
2022/07/15 03:54:35;;;;;;;;;;;;;;;26.27;70.46;100183.97;3047289;19;1861;-49
2022/07/15 03:55:37;;;;;;;;;;;;;;;26.85;67.41;100177.88;3045708;19;1125;-48
2022/07/15 03:56:42;;;;;;;;;;;;;;;27.40;64.89;100180.50;3044817;19;1372;-50
2022/07/15 03:57:44;;;;;;;;;;;;;;;27.92;62.28;100185.94;3046421;19;1001;-49
2022/07/15 03:58:48;;;;;;;;;;;;;;;28.36;60.41;100197.25;3047434;19;1681;-49
2022/07/15 03:59:51;;;;;;;;;;;;;;;28.79;58.38;100200.25;3048208;19;1429;-49
2022/07/15 04:00:56;;;;;;;;;;;;;;;29.11;56.51;100190.94;3045875;19;1660;-48
2022/07/15 04:02:00;;;;;;;;;;;;;;;29.49;55.07;100192.78;3052890;19;944;-48
2022/07/15 04:03:06;;;;;;;;;;;;;;;29.68;54.18;100178.03;3053459;19;1160;-50
2022/07/15 04:04:08;;;;;;;;;;;;;;;30.05;52.95;100199.03;3053372;19;1745;-48
2022/07/15 04:05:13;;;;;;;;;;;;;;;30.35;52.11;100199.09;3051448;19;1778;-48
2022/07/15 04:06:15;;;;;;;;;;;;;;;30.68;51.31;100203.38;3052232;19;1210;-49
2022/07/15 04:07:20;;;;;;;;;;;;;;;31.01;50.31;100206.53;3052089;19;1700;-49
2022/07/15 04:08:21;;;;;;;;;;;;;;;31.33;49.74;100206.25;3053129;19;1061;-49
2022/07/15 04:09:26;;;;;;;;;;;;;;;31.65;48.72;100204.03;3053341;19;1171;-49
2022/07/15 04:10:28;;;;;;;;;;;;;;;31.89;47.89;100205.72;3053788;19;1332;-49
2022/07/15 04:11:32;;;;;;;;;;;;;;;32.10;47.27;100212.56;3052352;19;1037;-49
2022/07/15 04:12:34;;;;;;;;;;;;;;;32.28;46.55;100217.97;3052981;19;1176;-49
2022/07/15 04:13:41;;;;;;;;;;;;;;;32.45;46.33;100213.38;3052732;19;985;-49
2022/07/15 04:14:43;;;;;;;;;;;;;;;32.60;46.07;100212.84;3052546;19;1852;-49
2022/07/15 04:15:48;;;;;;;;;;;;;;;32.76;45.65;100223.13;3049714;19;1757;-49
2022/07/15 04:16:50;;;;;;;;;;;;;;;32.93;45.46;100212.16;3047942;19;1260;-50
2022/07/15 04:18:12;;;;;;;;;;;;;;;33.15;44.87;100220.56;3044983;19;912;-49
2022/07/15 04:19:15;;;;;;;;;;;;;;;33.33;44.29;100216.78;3044335;19;1901;-48
2022/07/15 04:20:19;;;;;;;;;;;;;;;33.44;44.07;100219.47;3047196;19;1034;-48
2022/07/15 04:21:25;;;;;;;;;;;;;;;33.66;43.94;100215.94;3046183;19;1343;-49
2022/07/15 04:22:29;;;;;;;;;;;;;;;33.88;43.44;100214.94;3046467;19;949;-49
2022/07/15 04:23:31;;;;;;;;;;;;;;;34.11;42.84;100222.19;3046433;19;1335;-49
2022/07/15 04:24:35;;;;;;;;;;;;;;;34.29;42.86;100226.63;3050843;19;1383;-49
2022/07/15 04:25:37;;;;;;;;;;;;;;;34.50;42.64;100227.72;3050795;19;1278;-48
2022/07/15 04:26:42;;;;;;;;;;;;;;;34.70;41.70;100222.44;3051142;19;1000;-48
2022/07/15 04:27:44;;;;;;;;;;;;;;;34.85;41.98;100216.25;3051341;19;964;-49
2022/07/15 04:28:49;;;;;;;;;;;;;;;35.05;42.18;100224.78;3050677;19;1070;-49
2022/07/15 04:29:52;;;;;;;;;;;;;;;35.29;41.74;100220.63;3050592;19;1143;-49
2022/07/15 04:30:56;;;;;;;;;;;;;;;35.58;41.62;100223.94;3051068;19;999;-49
2022/07/15 04:31:58;;;;;;;;;;;;;;;35.88;41.07;100222.50;3051290;19;1355;-49
2022/07/15 04:33:09;;;;;;;;;;;;;;;36.20;40.86;100225.22;3051202;19;1525;-48
2022/07/15 04:34:16;;;;;;;;;;;;;;;36.40;40.52;100230.91;3051093;19;1021;-48
2022/07/15 04:35:19;;;;;;;;;;;;;;;36.56;39.83;100229.88;3051184;19;1896;-49
2022/07/15 04:36:30;;;;;;;;;;;;;;;36.68;39.81;100233.25;3051698;19;1123;-50
2022/07/15 04:37:32;;;;;;;;;;;;;;;36.68;39.49;100233.25;3052220;19;1143;-49
2022/07/15 04:38:37;;;;;;;;;;;;;;;36.80;39.58;100233.03;3053203;19;1674;-48
2022/07/15 04:39:40;;;;;;;;;;;;;;;37.04;39.10;100242.56;3046628;19;1007;-49
2022/07/15 04:40:45;;;;;;;;;;;;;;;37.26;38.92;100239.56;3047781;19;1099;-49
2022/07/15 04:41:50;;;;;;;;;;;;;;;37.52;38.62;100239.59;3047953;19;1189;-48
2022/07/15 04:42:55;;;;;;;;;;;;;;;37.76;38.53;100243.50;3049812;19;995;-49
2022/07/15 04:43:57;;;;;;;;;;;;;;;37.98;37.84;100235.69;3048904;19;1012;-49
2022/07/15 04:45:01;;;;;;;;;;;;;;;37.99;37.64;100242.94;3050338;19;1078;-49
2022/07/15 04:46:04;;;;;;;;;;;;;;;38.05;37.40;100241.78;3051898;19;1163;-49
2022/07/15 04:47:08;;;;;;;;;;;;;;;37.99;37.27;100240.13;3056664;19;1005;-49
2022/07/15 04:50:51;;;;;;;;;;;;;;;33.33;41.78;100227.84;3055506;19;1007;-49
2022/07/15 04:52:00;;;;;;;;;;;;;;;32.00;43.39;100228.91;3055489;19;966;-49
2022/07/15 04:53:03;;;;;;;;;;;;;;;30.75;45.40;100223.44;3055712;19;1056;-48
2022/07/15 04:54:09;;;;;;;;;;;;;;;31.20;45.94;100223.00;3054781;19;1282;-49
2022/07/15 04:55:11;;;;;;;;;;;;;;;31.94;44.97;100227.09;3052530;19;1846;-48
2022/07/15 04:56:16;;;;;;;;;;;;;;;32.50;44.27;100231.97;3054739;19;1799;-49
2022/07/15 04:57:18;;;;;;;;;;;;;;;33.08;43.71;100242.00;3050014;19;1842;-50
2022/07/15 04:58:22;;;;;;;;;;;;;;;33.49;43.36;100232.53;3051958;19;1750;-50
2022/07/15 04:59:27;;;;;;;;;;;;;;;33.72;42.35;100234.28;3052360;19;1171;-50
2022/07/15 05:00:29;;;;;;;;;;;;;;;33.93;42.16;100245.44;3053433;19;1439;-49
2022/07/15 05:01:33;;;;;;;;;;;;;;;33.95;42.60;100248.81;3051090;19;1659;-49
2022/07/15 05:02:36;;;;;;;;;;;;;;;33.26;42.91;100245.44;3047424;19;1218;-49
2022/07/15 05:03:42;;;;;;;;;;;;;;;31.99;44.18;100233.59;3047139;19;1294;-50
2022/07/15 05:04:44;;;;;;;;;;;;;;;32.44;43.74;100241.25;3048185;19;1063;-49
2022/07/15 05:05:48;;;;;;;;;;;;;;;32.73;43.50;100240.22;3049787;19;1690;-49
2022/07/15 05:06:56;;;;;;;;;;;;;;;32.89;42.90;100246.88;3049852;19;1104;-48
2022/07/15 05:07:58;;;;;;;;;;;;;;;33.18;42.94;100240.28;3050203;19;952;-49
2022/07/15 05:09:12;;;;;;;;;;;;;;;33.41;42.39;100257.84;3054274;19;1003;-48
2022/07/15 05:10:14;;;;;;;;;;;;;;;33.57;41.89;100248.75;3055666;19;1153;-49
2022/07/15 05:11:25;;;;;;;;;;;;;;;33.72;42.32;100251.75;3054406;19;1055;-50
2022/07/15 05:12:27;;;;;;;;;;;;;;;33.82;42.11;100251.94;3054866;19;1272;-50
2022/07/15 05:13:34;;;;;;;;;;;;;;;33.55;41.93;100240.69;3054459;19;1362;-49
2022/07/15 05:14:38;;;;;;;;;;;;;;;32.86;42.54;100250.13;3054500;19;1289;-49
2022/07/15 05:15:42;;;;;;;;;;;;;;;31.36;43.56;100249.91;3055275;19;1849;-49
2022/07/15 05:16:50;;;;;;;;;;;;;;;29.90;46.70;100242.56;3054908;19;1811;-49
2022/07/15 05:17:55;;;;;;;;;;;;;;;29.05;48.49;100252.28;3054658;19;1283;-49
2022/07/15 05:19:00;;;;;;;;;;;;;;;28.37;50.10;100240.13;3054711;19;1083;-49
2022/07/15 05:20:02;;;;;;;;;;;;;;;27.80;51.78;100236.19;3054937;19;1039;-50
2022/07/15 05:21:07;;;;;;;;;;;;;;;27.26;52.53;100250.91;3055301;19;949;-49
2022/07/15 05:22:16;;;;;;;;;;;;;;;26.63;53.40;100244.81;3054054;19;1349;-49
2022/07/15 05:23:21;;;;;;;;;;;;;;;26.28;54.35;100245.91;3055243;19;1101;-49
2022/07/15 05:24:28;;;;;;;;;;;;;;;25.90;55.51;100240.78;3047992;19;885;-49
2022/07/15 05:25:35;;;;;;;;;;;;;;;25.63;56.83;100241.63;3046932;19;1749;-49
2022/07/15 05:26:37;;;;;;;;;;;;;;;25.42;57.07;100246.06;3047445;19;997;-50
2022/07/15 05:27:48;;;;;;;;;;;;;;;25.30;58.23;100247.63;3049914;19;1433;-49
2022/07/15 05:28:53;;;;;;;;;;;;;;;25.14;57.62;100245.13;3049549;19;1042;-48
2022/07/15 05:29:55;;;;;;;;;;;;;;;25.02;58.41;100249.44;3048739;19;1739;-48
2022/07/15 05:31:00;;;;;;;;;;;;;;;24.93;59.85;100239.69;3049122;19;960;-48
2022/07/15 05:32:03;;;;;;;;;;;;;;;24.67;59.79;100251.94;3053225;19;2044;-49
2022/07/15 05:33:09;;;;;;;;;;;;;;;24.47;60.22;100237.22;3052343;19;1132;-49
2022/07/15 05:34:10;;;;;;;;;;;;;;;24.39;61.23;100242.78;3054742;19;995;-49
2022/07/15 05:35:16;;;;;;;;;;;;;;;24.04;61.27;100234.28;3054990;19;1679;-49
2022/07/15 05:36:20;;;;;;;;;;;;;;;24.02;61.63;100241.81;3054285;19;1838;-50
2022/07/15 05:37:25;;;;;;;;;;;;;;;23.91;62.54;100249.63;3054844;19;1051;-49